sensor_id;sensor_type;location;lat;lon;timestamp;pressure;altitude;pressure_sealevel;temperature;humidity
66430;BME280;53242;51.694;10.006;2023-04-01T00:01:19;97596.53;;;10.12;82.87
66430;BME280;53242;51.694;10.006;2023-04-01T00:03:42;97593.66;;;10.13;82.73
66430;BME280;53242;51.694;10.006;2023-04-01T00:06:05;97593.19;;;10.16;83.39
66430;BME280;53242;51.694;10.006;2023-04-01T00:08:28;97598.06;;;10.08;83.64
66430;BME280;53242;51.694;10.006;2023-04-01T00:10:51;97596.13;;;10.03;84.36
66430;BME280;53242;51.694;10.006;2023-04-01T00:13:14;97592.13;;;10.00;85.05
66430;BME280;53242;51.694;10.006;2023-04-01T00:15:37;97597.06;;;9.97;85.25
66430;BME280;53242;51.694;10.006;2023-04-01T00:18:00;97594.34;;;9.92;85.04
66430;BME280;53242;51.694;10.006;2023-04-01T00:20:23;97585.66;;;9.91;85.27
66430;BME280;53242;51.694;10.006;2023-04-01T00:22:45;97587.34;;;9.97;85.07
66430;BME280;53242;51.694;10.006;2023-04-01T00:25:08;97591.59;;;9.98;85.10
66430;BME280;53242;51.694;10.006;2023-04-01T00:27:31;97590.69;;;9.93;85.77
66430;BME280;53242;51.694;10.006;2023-04-01T00:29:53;97584.28;;;9.88;85.98
66430;BME280;53242;51.694;10.006;2023-04-01T00:32:16;97579.97;;;9.82;86.21
66430;BME280;53242;51.694;10.006;2023-04-01T00:34:38;97584.03;;;9.90;86.25
66430;BME280;53242;51.694;10.006;2023-04-01T00:37:02;97573.81;;;9.77;86.47
66430;BME280;53242;51.694;10.006;2023-04-01T00:39:24;97580.03;;;9.87;85.96
66430;BME280;53242;51.694;10.006;2023-04-01T00:41:47;97573.41;;;9.85;85.97
66430;BME280;53242;51.694;10.006;2023-04-01T00:44:22;97579.41;;;9.80;85.99
66430;BME280;53242;51.694;10.006;2023-04-01T00:46:45;97574.25;;;9.74;86.44
66430;BME280;53242;51.694;10.006;2023-04-01T00:49:08;97574.59;;;9.77;86.78
66430;BME280;53242;51.694;10.006;2023-04-01T00:51:31;97565.16;;;9.64;87.16
66430;BME280;53242;51.694;10.006;2023-04-01T00:53:56;97567.41;;;9.73;86.81
66430;BME280;53242;51.694;10.006;2023-04-01T00:56:31;97563.44;;;9.70;87.18
66430;BME280;53242;51.694;10.006;2023-04-01T00:58:58;97560.78;;;9.70;86.93
66430;BME280;53242;51.694;10.006;2023-04-01T01:01:23;97569.88;;;9.62;87.10
66430;BME280;53242;51.694;10.006;2023-04-01T01:03:46;97569.63;;;9.64;87.21
66430;BME280;53242;51.694;10.006;2023-04-01T01:06:37;97570.75;;;9.68;87.49
66430;BME280;53242;51.694;10.006;2023-04-01T01:09:34;97572.81;;;9.66;87.28
66430;BME280;53242;51.694;10.006;2023-04-01T01:12:14;97575.78;;;9.69;87.12
66430;BME280;53242;51.694;10.006;2023-04-01T01:20:49;97570.59;;;9.75;87.04
66430;BME280;53242;51.694;10.006;2023-04-01T01:26:12;97566.16;;;9.75;86.43
66430;BME280;53242;51.694;10.006;2023-04-01T01:32:01;97570.66;;;9.63;87.02
66430;BME280;53242;51.694;10.006;2023-04-01T01:34:40;97565.50;;;9.68;86.84
66430;BME280;53242;51.694;10.006;2023-04-01T01:37:15;97563.44;;;9.70;86.48
66430;BME280;53242;51.694;10.006;2023-04-01T01:39:39;97559.94;;;9.52;87.15
66430;BME280;53242;51.694;10.006;2023-04-01T01:42:06;97565.44;;;9.51;86.85
66430;BME280;53242;51.694;10.006;2023-04-01T01:44:31;97566.41;;;9.62;86.48
66430;BME280;53242;51.694;10.006;2023-04-01T01:46:56;97569.63;;;9.64;86.39
66430;BME280;53242;51.694;10.006;2023-04-01T01:49:18;97566.91;;;9.59;86.80
66430;BME280;53242;51.694;10.006;2023-04-01T01:51:42;97572.63;;;9.55;86.79
66430;BME280;53242;51.694;10.006;2023-04-01T01:54:12;97570.47;;;9.52;87.39
66430;BME280;53242;51.694;10.006;2023-04-01T01:56:35;97574.38;;;9.50;87.31
66430;BME280;53242;51.694;10.006;2023-04-01T01:59:02;97569.06;;;9.62;86.53
66430;BME280;53242;51.694;10.006;2023-04-01T02:01:29;97572.88;;;9.54;87.18
66430;BME280;53242;51.694;10.006;2023-04-01T02:04:00;97570.47;;;9.52;87.26
66430;BME280;53242;51.694;10.006;2023-04-01T02:06:26;97572.41;;;9.57;86.79
66430;BME280;53242;51.694;10.006;2023-04-01T02:08:53;97576.31;;;9.54;86.77
66430;BME280;53242;51.694;10.006;2023-04-01T02:11:19;97567.25;;;9.50;86.43
66430;BME280;53242;51.694;10.006;2023-04-01T02:13:55;97571.50;;;9.51;86.51
66430;BME280;53242;51.694;10.006;2023-04-01T02:16:34;97572.41;;;9.57;86.11
66430;BME280;53242;51.694;10.006;2023-04-01T02:18:58;97566.72;;;9.48;86.32
66430;BME280;53242;51.694;10.006;2023-04-01T02:21:24;97574.63;;;9.48;85.91
66430;BME280;53242;51.694;10.006;2023-04-01T02:23:49;97579.16;;;9.53;85.94
66430;BME280;53242;51.694;10.006;2023-04-01T02:26:14;97574.94;;;9.52;86.17
66430;BME280;53242;51.694;10.006;2023-04-01T02:28:38;97575.88;;;9.46;86.46
66430;BME280;53242;51.694;10.006;2023-04-01T02:31:01;97577.09;;;9.55;86.20
66430;BME280;53242;51.694;10.006;2023-04-01T02:33:24;97576.88;;;9.57;86.29
66430;BME280;53242;51.694;10.006;2023-04-01T02:35:47;97580.22;;;9.52;86.87
66430;BME280;53242;51.694;10.006;2023-04-01T02:38:10;97582.28;;;9.50;86.59
66430;BME280;53242;51.694;10.006;2023-04-01T02:40:50;97589.69;;;9.53;86.96
66430;BME280;53242;51.694;10.006;2023-04-01T02:43:13;97584.91;;;9.50;87.12
66430;BME280;53242;51.694;10.006;2023-04-01T02:45:36;97585.38;;;9.47;87.38
66430;BME280;53242;51.694;10.006;2023-04-01T02:47:58;97579.31;;;9.46;86.99
66430;BME280;53242;51.694;10.006;2023-04-01T02:50:21;97581.50;;;9.49;86.71
66430;BME280;53242;51.694;10.006;2023-04-01T02:52:44;97588.91;;;9.52;87.00
66430;BME280;53242;51.694;10.006;2023-04-01T02:55:07;97583.72;;;9.58;87.01
66430;BME280;53242;51.694;10.006;2023-04-01T02:57:29;97586.69;;;9.61;86.67
66430;BME280;53242;51.694;10.006;2023-04-01T02:59:52;97582.66;;;9.42;87.23
66430;BME280;53242;51.694;10.006;2023-04-01T03:02:15;97583.78;;;9.46;87.78
66430;BME280;53242;51.694;10.006;2023-04-01T03:04:38;97587.53;;;9.50;87.13
66430;BME280;53242;51.694;10.006;2023-04-01T03:07:00;97586.75;;;9.49;87.16
66430;BME280;53242;51.694;10.006;2023-04-01T03:09:23;97592.50;;;9.34;87.84
66430;BME280;53242;51.694;10.006;2023-04-01T03:11:46;97591.81;;;9.39;87.93
66430;BME280;53242;51.694;10.006;2023-04-01T03:14:08;97594.75;;;9.43;87.67
66430;BME280;53242;51.694;10.006;2023-04-01T03:16:31;97592.72;;;9.45;87.81
66430;BME280;53242;51.694;10.006;2023-04-01T03:18:54;97589.63;;;9.36;88.40
66430;BME280;53242;51.694;10.006;2023-04-01T03:21:22;97588.22;;;9.45;88.08
66430;BME280;53242;51.694;10.006;2023-04-01T03:23:45;97585.97;;;9.37;88.13
66430;BME280;53242;51.694;10.006;2023-04-01T03:26:08;97596.84;;;9.41;87.83
66430;BME280;53242;51.694;10.006;2023-04-01T03:28:30;97587.19;;;9.46;87.36
66430;BME280;53242;51.694;10.006;2023-04-01T03:30:53;97594.56;;;9.44;87.29
66430;BME280;53242;51.694;10.006;2023-04-01T03:33:15;97585.59;;;9.45;86.95
66430;BME280;53242;51.694;10.006;2023-04-01T03:35:38;97584.03;;;9.44;87.00
66430;BME280;53242;51.694;10.006;2023-04-01T03:38:02;97590.31;;;9.43;86.71
66430;BME280;53242;51.694;10.006;2023-04-01T03:40:25;97593.88;;;9.37;86.94
66430;BME280;53242;51.694;10.006;2023-04-01T03:42:49;97596.94;;;9.46;86.41
66430;BME280;53242;51.694;10.006;2023-04-01T03:45:12;97597.53;;;9.36;86.73
66430;BME280;53242;51.694;10.006;2023-04-01T03:47:35;97601.19;;;9.35;86.37
66430;BME280;53242;51.694;10.006;2023-04-01T03:49:57;97596.84;;;9.41;87.00
66430;BME280;53242;51.694;10.006;2023-04-01T03:52:21;97599.38;;;9.35;86.85
66430;BME280;53242;51.694;10.006;2023-04-01T03:54:44;97599.63;;;9.34;87.18
66430;BME280;53242;51.694;10.006;2023-04-01T03:57:06;97600.16;;;9.36;87.30
66430;BME280;53242;51.694;10.006;2023-04-01T03:59:29;97604.97;;;9.39;86.79
66430;BME280;53242;51.694;10.006;2023-04-01T04:01:52;97602.00;;;9.35;87.29
66430;BME280;53242;51.694;10.006;2023-04-01T04:04:15;97600.16;;;9.36;86.79
66430;BME280;53242;51.694;10.006;2023-04-01T04:06:37;97600.66;;;9.33;87.16
66430;BME280;53242;51.694;10.006;2023-04-01T04:09:00;97600.06;;;9.31;87.30
66430;BME280;53242;51.694;10.006;2023-04-01T04:11:23;97599.63;;;9.34;87.53
66430;BME280;53242;51.694;10.006;2023-04-01T04:13:48;97601.09;;;9.30;87.28
66430;BME280;53242;51.694;10.006;2023-04-01T04:16:11;97603.72;;;9.30;87.38
66430;BME280;53242;51.694;10.006;2023-04-01T04:18:38;97612.88;;;9.27;87.53
66430;BME280;53242;51.694;10.006;2023-04-01T04:21:01;97605.81;;;9.28;87.63
66430;BME280;53242;51.694;10.006;2023-04-01T04:23:24;97608.31;;;9.34;87.12
66430;BME280;53242;51.694;10.006;2023-04-01T04:26:04;97611.97;;;9.33;87.70
66430;BME280;53242;51.694;10.006;2023-04-01T04:28:28;97608.69;;;9.26;87.80
66430;BME280;53242;51.694;10.006;2023-04-01T04:30:52;97606.59;;;9.28;87.50
66430;BME280;53242;51.694;10.006;2023-04-01T04:33:16;97607.19;;;9.30;87.51
66430;BME280;53242;51.694;10.006;2023-04-01T04:35:39;97618.03;;;9.22;87.90
66430;BME280;53242;51.694;10.006;2023-04-01T04:38:01;97605.69;;;9.23;87.66
66430;BME280;53242;51.694;10.006;2023-04-01T04:40:24;97614.72;;;9.27;87.26
66430;BME280;53242;51.694;10.006;2023-04-01T04:42:46;97619.41;;;9.25;87.06
66430;BME280;53242;51.694;10.006;2023-04-01T04:45:11;97618.72;;;9.29;87.27
66430;BME280;53242;51.694;10.006;2023-04-01T04:47:38;97617.38;;;9.27;87.17
66430;BME280;53242;51.694;10.006;2023-04-01T04:50:01;97616.47;;;9.21;87.25
66430;BME280;53242;51.694;10.006;2023-04-01T04:52:24;97609.47;;;9.27;86.80
66430;BME280;53242;51.694;10.006;2023-04-01T04:54:47;97612.88;;;9.27;86.90
66430;BME280;53242;51.694;10.006;2023-04-01T04:57:09;97615.22;;;9.24;86.75
66430;BME280;53242;51.694;10.006;2023-04-01T04:59:39;97617.38;;;9.15;86.85
66430;BME280;53242;51.694;10.006;2023-04-01T05:02:21;97608.56;;;9.21;86.81
66430;BME280;53242;51.694;10.006;2023-04-01T05:04:44;97621.25;;;9.24;86.89
66430;BME280;53242;51.694;10.006;2023-04-01T05:07:07;97619.09;;;9.21;87.57
66430;BME280;53242;51.694;10.006;2023-04-01T05:09:30;97612.78;;;9.22;86.94
66430;BME280;53242;51.694;10.006;2023-04-01T05:11:53;97618.75;;;9.17;86.41
66430;BME280;53242;51.694;10.006;2023-04-01T05:14:17;97618.38;;;9.26;86.55
66430;BME280;53242;51.694;10.006;2023-04-01T05:16:48;97625.84;;;9.29;85.97
66430;BME280;53242;51.694;10.006;2023-04-01T05:19:12;97629.50;;;9.28;85.94
66430;BME280;53242;51.694;10.006;2023-04-01T05:21:35;97624.56;;;9.31;85.97
66430;BME280;53242;51.694;10.006;2023-04-01T05:23:57;97628.22;;;9.30;85.80
66430;BME280;53242;51.694;10.006;2023-04-01T05:26:21;97625.84;;;9.29;85.93
66430;BME280;53242;51.694;10.006;2023-04-01T05:28:44;97638.28;;;9.33;85.65
66430;BME280;53242;51.694;10.006;2023-04-01T05:31:06;97628.00;;;9.32;85.69
66430;BME280;53242;51.694;10.006;2023-04-01T05:33:37;97633.38;;;9.37;85.45
66430;BME280;53242;51.694;10.006;2023-04-01T05:36:12;97634.28;;;9.31;85.52
66430;BME280;53242;51.694;10.006;2023-04-01T05:38:35;97630.97;;;9.35;85.22
66430;BME280;53242;51.694;10.006;2023-04-01T05:41:02;97626.25;;;9.37;84.96
66430;BME280;53242;51.694;10.006;2023-04-01T05:43:26;97631.97;;;9.46;85.04
66430;BME280;53242;51.694;10.006;2023-04-01T05:45:50;97639.53;;;9.43;84.74
66430;BME280;53242;51.694;10.006;2023-04-01T05:48:35;97635.41;;;9.47;84.76
66430;BME280;53242;51.694;10.006;2023-04-01T05:50:58;97640.06;;;9.57;84.45
66430;BME280;53242;51.694;10.006;2023-04-01T05:53:20;97641.72;;;9.46;84.77
66430;BME280;53242;51.694;10.006;2023-04-01T05:55:43;97637.81;;;9.48;84.85
66430;BME280;53242;51.694;10.006;2023-04-01T05:58:05;97644.78;;;9.54;84.86
66430;BME280;53242;51.694;10.006;2023-04-01T06:00:28;97638.81;;;9.59;85.02
66430;BME280;53242;51.694;10.006;2023-04-01T06:02:52;97641.22;;;9.49;85.36
66430;BME280;53242;51.694;10.006;2023-04-01T06:05:23;97643.94;;;9.66;84.63
66430;BME280;53242;51.694;10.006;2023-04-01T06:07:46;97640.53;;;9.53;84.99
66430;BME280;53242;51.694;10.006;2023-04-01T06:10:20;97639.56;;;9.71;84.97
66430;BME280;53242;51.694;10.006;2023-04-01T06:13:07;97641.63;;;9.69;84.39
66430;BME280;53242;51.694;10.006;2023-04-01T06:15:41;97652.66;;;9.66;84.25
66430;BME280;53242;51.694;10.006;2023-04-01T06:21:37;97639.53;;;9.83;84.29
66430;BME280;53242;51.694;10.006;2023-04-01T06:24:27;97649.59;;;9.86;84.13
66430;BME280;53242;51.694;10.006;2023-04-01T06:29:38;97649.50;;;9.81;84.83
66430;BME280;53242;51.694;10.006;2023-04-01T06:32:26;97651.19;;;9.87;84.63
66430;BME280;53242;51.694;10.006;2023-04-01T06:35:04;97644.56;;;9.85;84.49
66430;BME280;53242;51.694;10.006;2023-04-01T06:38:00;97654.63;;;9.88;84.23
66430;BME280;53242;51.694;10.006;2023-04-01T06:46:38;97652.41;;;9.97;83.28
66430;BME280;53242;51.694;10.006;2023-04-01T06:49:39;97653.66;;;10.06;82.71
66430;BME280;53242;51.694;10.006;2023-04-01T06:52:29;97648.50;;;9.99;82.76
66430;BME280;53242;51.694;10.006;2023-04-01T06:55:32;97652.94;;;10.11;82.39
66430;BME280;53242;51.694;10.006;2023-04-01T06:58:23;97660.38;;;10.14;82.53
66430;BME280;53242;51.694;10.006;2023-04-01T07:00:50;97663.66;;;10.21;82.05
66430;BME280;53242;51.694;10.006;2023-04-01T07:03:30;97674.91;;;10.16;82.04
66430;BME280;53242;51.694;10.006;2023-04-01T07:06:03;97664.28;;;10.11;81.87
66430;BME280;53242;51.694;10.006;2023-04-01T07:08:28;97673.66;;;10.19;82.02
66430;BME280;53242;51.694;10.006;2023-04-01T07:11:04;97671.13;;;10.12;81.51
66430;BME280;53242;51.694;10.006;2023-04-01T07:13:53;97675.78;;;10.05;82.29
66430;BME280;53242;51.694;10.006;2023-04-01T07:16:51;97674.19;;;10.21;81.99
66430;BME280;53242;51.694;10.006;2023-04-01T07:19:23;97677.56;;;10.16;82.41
66430;BME280;53242;51.694;10.006;2023-04-01T07:22:23;97676.03;;;10.20;82.13
66430;BME280;53242;51.694;10.006;2023-04-01T07:25:38;97676.13;;;10.26;82.08
66430;BME280;53242;51.694;10.006;2023-04-01T07:28:32;97678.72;;;10.38;81.51
66430;BME280;53242;51.694;10.006;2023-04-01T07:34:25;97678.13;;;10.47;81.43
66430;BME280;53242;51.694;10.006;2023-04-01T07:36:53;97681.78;;;10.46;81.70
66430;BME280;53242;51.694;10.006;2023-04-01T07:39:44;97678.91;;;10.48;81.89
66430;BME280;53242;51.694;10.006;2023-04-01T07:51:20;97692.25;;;10.58;81.01
66430;BME280;53242;51.694;10.006;2023-04-01T07:53:49;97697.78;;;10.57;81.49
66430;BME280;53242;51.694;10.006;2023-04-01T07:56:25;97697.28;;;10.60;80.93
66430;BME280;53242;51.694;10.006;2023-04-01T08:02:25;97698.97;;;10.66;82.20
66430;BME280;53242;51.694;10.006;2023-04-01T08:08:19;97702.81;;;10.58;82.26
66430;BME280;53242;51.694;10.006;2023-04-01T08:14:27;97711.63;;;10.81;81.25
66430;BME280;53242;51.694;10.006;2023-04-01T08:22:57;97714.09;;;10.88;80.59
66430;BME280;53242;51.694;10.006;2023-04-01T08:25:30;97725.69;;;10.86;80.23
66430;BME280;53242;51.694;10.006;2023-04-01T08:28:20;97721.06;;;10.94;79.91
66430;BME280;53242;51.694;10.006;2023-04-01T08:30:50;97728.66;;;11.07;79.57
66430;BME280;53242;51.694;10.006;2023-04-01T08:35:47;97727.28;;;11.05;79.22
66430;BME280;53242;51.694;10.006;2023-04-01T08:38:21;97726.41;;;11.16;78.76
66430;BME280;53242;51.694;10.006;2023-04-01T08:41:00;97726.88;;;10.96;78.85
66430;BME280;53242;51.694;10.006;2023-04-01T08:46:59;97729.63;;;11.18;78.38
66430;BME280;53242;51.694;10.006;2023-04-01T08:49:50;97735.19;;;11.22;78.52
66430;BME280;53242;51.694;10.006;2023-04-01T08:52:48;97735.06;;;11.28;78.01
66430;BME280;53242;51.694;10.006;2023-04-01T08:55:30;97736.50;;;11.02;78.35
66430;BME280;53242;51.694;10.006;2023-04-01T08:58:42;97743.13;;;11.22;78.61
66430;BME280;53242;51.694;10.006;2023-04-01T09:01:57;97741.16;;;10.95;78.67
66430;BME280;53242;51.694;10.006;2023-04-01T09:05:06;97743.69;;;11.07;78.68
66430;BME280;53242;51.694;10.006;2023-04-01T09:10:34;97744.25;;;11.26;78.26
66430;BME280;53242;51.694;10.006;2023-04-01T09:19:00;97753.94;;;11.20;78.51
66430;BME280;53242;51.694;10.006;2023-04-01T09:24:22;97760.81;;;11.04;78.37
66430;BME280;53242;51.694;10.006;2023-04-01T09:27:09;97760.91;;;11.09;78.94
66430;BME280;53242;51.694;10.006;2023-04-01T09:30:05;97757.22;;;11.27;78.91
66430;BME280;53242;51.694;10.006;2023-04-01T09:40:56;97772.19;;;11.39;78.74
66430;BME280;53242;51.694;10.006;2023-04-01T09:49:24;97774.88;;;11.27;79.32
66430;BME280;53242;51.694;10.006;2023-04-01T09:54:58;97779.19;;;11.50;79.63
66430;BME280;53242;51.694;10.006;2023-04-01T10:01:17;97779.34;;;11.43;79.93
66430;BME280;53242;51.694;10.006;2023-04-01T10:12:39;97788.72;;;11.34;79.29
66430;BME280;53242;51.694;10.006;2023-04-01T10:20:41;97786.47;;;11.60;78.30
66430;BME280;53242;51.694;10.006;2023-04-01T10:26:26;97788.63;;;12.02;78.89
66430;BME280;53242;51.694;10.006;2023-04-01T10:32:23;97787.03;;;12.01;76.17
66430;BME280;53242;51.694;10.006;2023-04-01T10:35:20;97792.94;;;12.08;76.82
66430;BME280;53242;51.694;10.006;2023-04-01T10:44:37;97781.75;;;12.01;75.59
66430;BME280;53242;51.694;10.006;2023-04-01T10:53:24;97791.03;;;12.04;75.92
66430;BME280;53242;51.694;10.006;2023-04-01T10:56:40;97792.81;;;11.98;74.84
66430;BME280;53242;51.694;10.006;2023-04-01T11:02:34;97794.97;;;12.01;75.06
66430;BME280;53242;51.694;10.006;2023-04-01T11:06:16;97796.25;;;11.98;74.79
66430;BME280;53242;51.694;10.006;2023-04-01T11:20:19;97802.22;;;12.11;74.02
66430;BME280;53242;51.694;10.006;2023-04-01T11:23:12;97809.31;;;11.88;76.78
66430;BME280;53242;51.694;10.006;2023-04-01T11:26:01;97809.50;;;11.81;78.31
66430;BME280;53242;51.694;10.006;2023-04-01T11:29:04;97804.03;;;11.88;77.26
66430;BME280;53242;51.694;10.006;2023-04-01T11:31:57;97809.72;;;11.97;77.33
66430;BME280;53242;51.694;10.006;2023-04-01T11:34:50;97809.72;;;11.97;78.19
66430;BME280;53242;51.694;10.006;2023-04-01T11:37:30;97814.31;;;12.07;78.06
66430;BME280;53242;51.694;10.006;2023-04-01T11:40:24;97815.38;;;12.28;77.46
66430;BME280;53242;51.694;10.006;2023-04-01T11:46:23;97814.94;;;12.36;76.71
66430;BME280;53242;51.694;10.006;2023-04-01T11:51:29;97812.97;;;12.48;76.39
66430;BME280;53242;51.694;10.006;2023-04-01T11:54:10;97821.81;;;12.59;76.29
66430;BME280;53242;51.694;10.006;2023-04-01T12:02:03;97823.31;;;12.77;74.31
66430;BME280;53242;51.694;10.006;2023-04-01T12:04:39;97823.72;;;12.91;73.25
66430;BME280;53242;51.694;10.006;2023-04-01T12:07:17;97826.53;;;12.79;73.46
66430;BME280;53242;51.694;10.006;2023-04-01T12:09:56;97828.53;;;12.99;72.54
66430;BME280;53242;51.694;10.006;2023-04-01T12:12:29;97831.00;;;13.06;72.62
66430;BME280;53242;51.694;10.006;2023-04-01T12:20:57;97836.38;;;13.44;71.81
66430;BME280;53242;51.694;10.006;2023-04-01T12:23:44;97835.63;;;13.48;71.82
66430;BME280;53242;51.694;10.006;2023-04-01T12:26:39;97843.13;;;13.62;71.45
66430;BME280;53242;51.694;10.006;2023-04-01T12:32:20;97832.88;;;13.76;70.51
66430;BME280;53242;51.694;10.006;2023-04-01T12:43:59;97849.97;;;13.53;71.41
66430;BME280;53242;51.694;10.006;2023-04-01T12:46:26;97848.53;;;13.40;69.92
66430;BME280;53242;51.694;10.006;2023-04-01T12:49:19;97848.38;;;13.57;71.50
66430;BME280;53242;51.694;10.006;2023-04-01T12:52:10;97851.13;;;13.35;71.69
66430;BME280;53242;51.694;10.006;2023-04-01T12:54:48;97857.56;;;12.89;73.56
66430;BME280;53242;51.694;10.006;2023-04-01T13:05:44;97874.47;;;12.61;76.58
66430;BME280;53242;51.694;10.006;2023-04-01T13:10:59;97880.34;;;12.63;77.46
66430;BME280;53242;51.694;10.006;2023-04-01T13:16:10;97876.19;;;12.72;76.82
66430;BME280;53242;51.694;10.006;2023-04-01T13:18:54;97881.44;;;12.67;77.55
66430;BME280;53242;51.694;10.006;2023-04-01T13:23:54;97880.09;;;12.92;76.91
66430;BME280;53242;51.694;10.006;2023-04-01T13:26:40;97886.38;;;12.80;77.14
66430;BME280;53242;51.694;10.006;2023-04-01T13:29:28;97884.34;;;12.93;77.47
66430;BME280;53242;51.694;10.006;2023-04-01T13:32:11;97884.06;;;12.89;76.80
66430;BME280;53242;51.694;10.006;2023-04-01T13:42:23;97897.78;;;12.86;75.21
66430;BME280;53242;51.694;10.006;2023-04-01T13:45:00;97894.91;;;12.88;75.96
66430;BME280;53242;51.694;10.006;2023-04-01T13:47:53;97898.97;;;12.73;76.68
66430;BME280;53242;51.694;10.006;2023-04-01T13:56:32;97906.06;;;12.90;74.97
66430;BME280;53242;51.694;10.006;2023-04-01T13:59:30;97906.59;;;12.92;72.54
66430;BME280;53242;51.694;10.006;2023-04-01T14:05:24;97915.22;;;12.82;74.28
66430;BME280;53242;51.694;10.006;2023-04-01T14:13:02;97919.00;;;12.64;76.79
66430;BME280;53242;51.694;10.006;2023-04-01T14:15:31;97923.66;;;12.57;77.06
66430;BME280;53242;51.694;10.006;2023-04-01T14:18:09;97921.19;;;12.50;78.66
66430;BME280;53242;51.694;10.006;2023-04-01T14:20:50;97934.13;;;12.46;78.27
66430;BME280;53242;51.694;10.006;2023-04-01T14:23:31;97936.09;;;12.56;77.46
66430;BME280;53242;51.694;10.006;2023-04-01T14:29:02;97934.69;;;12.48;76.65
66430;BME280;53242;51.694;10.006;2023-04-01T14:34:54;97940.47;;;12.68;77.26
66430;BME280;53242;51.694;10.006;2023-04-01T14:45:50;97954.44;;;12.63;77.97
66430;BME280;53242;51.694;10.006;2023-04-01T14:48:30;97950.56;;;12.71;78.11
66430;BME280;53242;51.694;10.006;2023-04-01T14:50:55;97954.50;;;12.68;78.12
66430;BME280;53242;51.694;10.006;2023-04-01T14:55:50;97947.97;;;12.31;79.13
66430;BME280;53242;51.694;10.006;2023-04-01T14:58:17;97963.34;;;12.34;78.81
66430;BME280;53242;51.694;10.006;2023-04-01T15:03:37;97962.81;;;12.55;76.47
66430;BME280;53242;51.694;10.006;2023-04-01T15:09:24;97973.19;;;12.39;76.65
66430;BME280;53242;51.694;10.006;2023-04-01T15:12:00;97967.72;;;12.46;77.79
66430;BME280;53242;51.694;10.006;2023-04-01T15:14:43;97965.94;;;12.52;78.55
66430;BME280;53242;51.694;10.006;2023-04-01T15:25:34;97980.38;;;12.05;78.43
66430;BME280;53242;51.694;10.006;2023-04-01T15:31:28;97991.88;;;11.81;80.52
66430;BME280;53242;51.694;10.006;2023-04-01T15:36:37;98006.81;;;11.59;81.69
66430;BME280;53242;51.694;10.006;2023-04-01T15:39:24;98004.66;;;11.56;81.90
66430;BME280;53242;51.694;10.006;2023-04-01T15:44:49;98020.06;;;11.47;82.58
66430;BME280;53242;51.694;10.006;2023-04-01T15:55:39;98036.16;;;11.45;84.75
66430;BME280;53242;51.694;10.006;2023-04-01T15:58:27;98033.66;;;11.39;84.67
66430;BME280;53242;51.694;10.006;2023-04-01T16:01:04;98041.34;;;11.40;85.12
66430;BME280;53242;51.694;10.006;2023-04-01T16:15:36;98053.97;;;11.09;85.10
66430;BME280;53242;51.694;10.006;2023-04-01T16:18:13;98063.72;;;10.97;85.36
66430;BME280;53242;51.694;10.006;2023-04-01T16:20:46;98059.25;;;10.85;86.06
66430;BME280;53242;51.694;10.006;2023-04-01T16:23:24;98061.09;;;10.85;86.24
66430;BME280;53242;51.694;10.006;2023-04-01T16:26:03;98064.13;;;10.77;86.65
66430;BME280;53242;51.694;10.006;2023-04-01T16:28:39;98065.25;;;10.45;87.05
66430;BME280;53242;51.694;10.006;2023-04-01T16:33:56;98075.81;;;10.69;87.77
66430;BME280;53242;51.694;10.006;2023-04-01T16:41:29;98090.94;;;10.62;86.71
66430;BME280;53242;51.694;10.006;2023-04-01T16:43:56;98088.31;;;10.62;86.01
66430;BME280;53242;51.694;10.006;2023-04-01T16:46:39;98089.25;;;10.79;85.43
66430;BME280;53242;51.694;10.006;2023-04-01T16:54:53;98106.78;;;10.62;84.84
66430;BME280;53242;51.694;10.006;2023-04-01T16:57:23;98111.84;;;10.87;84.17
66430;BME280;53242;51.694;10.006;2023-04-01T16:59:55;98117.44;;;10.91;84.22
66430;BME280;53242;51.694;10.006;2023-04-01T17:02:45;98118.03;;;10.69;84.42
66430;BME280;53242;51.694;10.006;2023-04-01T17:05:11;98131.00;;;10.59;84.68
66430;BME280;53242;51.694;10.006;2023-04-01T17:10:32;98138.31;;;10.68;83.31
66430;BME280;53242;51.694;10.006;2023-04-01T17:15:43;98144.44;;;10.81;83.34
66430;BME280;53242;51.694;10.006;2023-04-01T17:21:02;98147.75;;;10.88;83.15
66430;BME280;53242;51.694;10.006;2023-04-01T17:23:35;98161.16;;;10.86;82.96
66430;BME280;53242;51.694;10.006;2023-04-01T17:26:06;98158.88;;;10.66;84.13
66430;BME280;53242;51.694;10.006;2023-04-01T17:31:07;98171.50;;;10.88;83.19
66430;BME280;53242;51.694;10.006;2023-04-01T17:41:57;98189.59;;;10.73;84.00
66430;BME280;53242;51.694;10.006;2023-04-01T17:47:13;98196.06;;;11.00;83.29
66430;BME280;53242;51.694;10.006;2023-04-01T17:52:37;98201.59;;;10.87;84.04
66430;BME280;53242;51.694;10.006;2023-04-01T17:55:31;98211.19;;;10.81;84.03
66430;BME280;53242;51.694;10.006;2023-04-01T17:58:01;98215.44;;;10.82;84.15
66430;BME280;53242;51.694;10.006;2023-04-01T18:00:46;98220.38;;;10.91;84.37
66430;BME280;53242;51.694;10.006;2023-04-01T18:10:47;98233.78;;;10.65;86.73
66430;BME280;53242;51.694;10.006;2023-04-01T18:16:54;98243.81;;;10.87;85.88
66430;BME280;53242;51.694;10.006;2023-04-01T18:19:32;98250.91;;;10.86;85.29
66430;BME280;53242;51.694;10.006;2023-04-01T18:24:47;98261.22;;;10.76;85.20
66430;BME280;53242;51.694;10.006;2023-04-01T18:27:24;98268.59;;;10.86;84.93
66430;BME280;53242;51.694;10.006;2023-04-01T18:29:54;98271.53;;;10.78;85.60
66430;BME280;53242;51.694;10.006;2023-04-01T18:32:33;98270.09;;;10.51;85.79
66430;BME280;53242;51.694;10.006;2023-04-01T18:37:55;98280.44;;;10.65;86.06
66430;BME280;53242;51.694;10.006;2023-04-01T18:40:28;98294.25;;;10.67;85.85
66430;BME280;53242;51.694;10.006;2023-04-01T18:43:00;98288.22;;;10.60;86.28
66430;BME280;53242;51.694;10.006;2023-04-01T18:45:32;98295.22;;;10.54;86.45
66430;BME280;53242;51.694;10.006;2023-04-01T18:48:06;98301.97;;;10.50;86.61